Time;durP1;ratioP1;P1;durP2;ratioP2;P2;SDS_P1;SDS_P2;PMS_P1;PMS_P2;Temp;Humidity;BMP_temperature;BMP_pressure;BME280_temperature;BME280_humidity;BME280_pressure;Samples;Min_cycle;Max_cycle;Signal;HPM_P1;HPM_P2
2023/09/04 00:02:12;;;;;;;4.50;2.60;;;;;;;14.76;100.00;99690.54;109628;1250;60260;-66
2023/09/04 00:04:38;;;;;;;3.30;2.30;;;;;;;14.75;100.00;99692.63;109634;1251;75767;-67
2023/09/04 00:07:05;;;;;;;2.80;2.10;;;;;;;14.70;100.00;99692.16;109637;1251;67712;-67
2023/09/04 00:09:31;;;;;;;4.80;2.70;;;;;;;14.65;100.00;99700.84;109670;1251;59877;-66
2023/09/04 00:11:58;;;;;;;6.00;2.40;;;;;;;14.61;100.00;99701.05;109648;1251;61792;-66
2023/09/04 00:14:25;;;;;;;4.00;2.50;;;;;;;14.55;100.00;99703.92;109638;1250;59796;-66
2023/09/04 00:16:51;;;;;;;3.10;2.80;;;;;;;14.48;100.00;99705.33;109663;1250;75286;-66
2023/09/04 00:19:18;;;;;;;2.90;2.70;;;;;;;14.41;100.00;99706.86;109647;1251;67743;-66
2023/09/04 00:21:44;;;;;;;3.70;2.70;;;;;;;14.36;100.00;99710.77;109614;1251;70799;-66
2023/09/04 00:24:11;;;;;;;2.30;1.90;;;;;;;14.31;100.00;99708.00;109596;1251;59771;-66
2023/09/04 00:26:37;;;;;;;2.40;2.00;;;;;;;14.32;100.00;99702.44;109665;1250;59722;-66
2023/09/04 00:29:04;;;;;;;5.20;2.60;;;;;;;14.33;100.00;99704.99;109648;1251;72923;-67
2023/09/04 00:31:31;;;;;;;3.20;2.30;;;;;;;14.40;100.00;99709.06;109514;1251;67877;-67
2023/09/04 00:33:58;;;;;;;2.40;2.20;;;;;;;14.50;100.00;99707.23;109684;1250;72494;-66
2023/09/04 00:36:25;;;;;;;2.60;2.40;;;;;;;14.55;100.00;99706.26;109614;1250;61738;-66
2023/09/04 00:38:51;;;;;;;2.40;2.20;;;;;;;14.56;100.00;99707.02;109618;1251;60339;-66
2023/09/04 00:41:19;;;;;;;2.40;2.20;;;;;;;14.58;100.00;99707.94;109688;1250;59706;-66
2023/09/04 00:43:46;;;;;;;2.70;2.50;;;;;;;14.58;100.00;99709.02;109611;1251;66537;-66
2023/09/04 00:46:13;;;;;;;4.10;2.20;;;;;;;14.54;100.00;99709.70;109678;1250;72485;-67
2023/09/04 00:48:39;;;;;;;3.10;2.20;;;;;;;14.47;100.00;99708.81;109572;1251;59757;-66
2023/09/04 00:51:06;;;;;;;2.70;2.50;;;;;;;14.41;100.00;99712.62;109611;1250;59754;-66
2023/09/04 00:53:33;;;;;;;2.10;1.90;;;;;;;14.34;100.00;99713.48;109654;1251;59795;-66
2023/09/04 00:55:59;;;;;;;3.10;2.80;;;;;;;14.26;100.00;99714.26;109497;1251;67952;-67
2023/09/04 00:58:26;;;;;;;4.20;2.30;;;;;;;14.19;100.00;99714.40;109496;1250;72449;-66
2023/09/04 01:00:53;;;;;;;2.90;2.50;;;;;;;14.16;100.00;99714.40;109495;1251;59897;-66
2023/09/04 01:03:21;;;;;;;2.50;2.30;;;;;;;14.20;100.00;99716.58;109531;1251;59717;-66
2023/09/04 01:05:47;;;;;;;6.40;2.50;;;;;;;14.26;100.00;99711.75;109715;1250;74006;-67
2023/09/04 01:08:14;;;;;;;2.50;2.30;;;;;;;14.34;100.00;99715.80;109605;1251;66641;-66
2023/09/04 01:11:18;;;;;;;2.60;2.00;;;;;;;14.40;100.00;99718.33;109623;1251;60235;-66
2023/09/04 01:13:49;;;;;;;2.60;2.40;;;;;;;14.41;100.00;99713.81;109622;1250;60229;-66
2023/09/04 01:16:16;;;;;;;2.70;2.20;;;;;;;14.47;100.00;99716.11;109544;1250;60132;-66
2023/09/04 01:18:43;;;;;;;3.50;2.60;;;;;;;14.53;100.00;99716.98;109543;1250;74136;-66
2023/09/04 01:21:10;;;;;;;2.70;2.50;;;;;;;14.58;100.00;99715.30;109612;1251;67900;-66
2023/09/04 01:23:37;;;;;;;3.90;2.30;;;;;;;14.62;100.00;99714.81;109528;1251;70522;-67
2023/09/04 01:26:25;;;;;;;4.00;2.50;;;;;;;14.64;100.00;99721.69;109575;1250;60223;-66
2023/09/04 01:29:20;;;;;;;4.30;2.40;;;;;;;14.66;100.00;99717.88;109640;1250;59727;-66
2023/09/04 01:31:56;;;;;;;3.40;2.60;;;;;;;14.68;100.00;99724.59;109581;1251;75289;-66
2023/09/04 01:34:27;;;;;;;3.50;2.50;;;;;;;14.67;100.00;99721.63;109686;1250;67738;-66
2023/09/04 01:36:54;;;;;;;2.80;2.50;;;;;;;14.66;100.00;99723.02;109614;1250;72460;-66
2023/09/04 01:39:21;;;;;;;2.80;2.50;;;;;;;14.63;100.00;99727.77;109546;1250;59745;-66
2023/09/04 01:41:47;;;;;;;3.60;2.70;;;;;;;14.63;100.00;99728.80;109591;1250;60454;-66
2023/09/04 01:44:14;;;;;;;5.40;2.80;;;;;;;14.62;100.00;99731.69;109650;1250;59895;-66
2023/09/04 01:46:41;;;;;;;3.40;2.80;;;;;;;14.60;100.00;99731.85;109705;1250;67680;-66
2023/09/04 01:49:09;;;;;;;3.10;2.80;;;;;;;14.57;100.00;99735.56;109633;1250;71417;-67
2023/09/04 01:51:35;;;;;;;2.90;2.40;;;;;;;14.54;100.00;99740.36;109600;1250;59701;-67
2023/09/04 01:54:02;;;;;;;2.30;2.10;;;;;;;14.54;100.00;99735.83;109617;1249;59790;-67
2023/09/04 01:56:29;;;;;;;2.60;2.40;;;;;;;14.53;100.00;99731.58;109667;1250;75539;-66
2023/09/04 01:58:55;;;;;;;3.60;2.70;;;;;;;14.49;100.00;99737.50;109540;1254;67007;-67
2023/09/04 02:01:22;;;;;;;3.10;2.80;;;;;;;14.42;100.00;99735.65;109623;1250;72715;-67
2023/09/04 02:03:55;;;;;;;2.80;2.60;;;;;;;14.34;100.00;99735.83;109642;1250;61074;-66
2023/09/04 02:06:22;;;;;;;2.40;2.20;;;;;;;14.27;100.00;99736.88;109578;1250;60017;-68
2023/09/04 02:08:50;;;;;;;2.90;2.50;;;;;;;14.24;100.00;99733.59;109575;1250;74189;-66
2023/09/04 02:11:17;;;;;;;2.80;2.60;;;;;;;14.22;100.00;99733.32;109620;1250;59855;-66
2023/09/04 02:13:45;;;;;;;4.50;3.20;;;;;;;14.18;100.00;99733.27;109596;1250;60343;-66
2023/09/04 02:16:12;;;;;;;5.10;3.20;;;;;;;14.16;100.00;99734.69;109509;1251;59789;-67
2023/09/04 02:18:39;;;;;;;3.50;2.60;;;;;;;14.15;100.00;99737.31;109556;1250;60719;-67
2023/09/04 02:21:06;;;;;;;4.50;3.20;;;;;;;14.16;100.00;99742.23;109641;1250;75239;-67
2023/09/04 02:23:33;;;;;;;3.40;2.80;;;;;;;14.18;100.00;99747.71;109539;1250;67033;-66
2023/09/04 02:26:00;;;;;;;18.50;3.90;;;;;;;14.17;100.00;99742.15;109597;1250;71434;-67
2023/09/04 02:28:26;;;;;;;2.60;2.40;;;;;;;14.11;100.00;99743.76;109546;1250;61767;-66
2023/09/04 02:30:53;;;;;;;2.60;2.40;;;;;;;14.03;100.00;99741.55;109640;1250;59824;-66
2023/09/04 02:33:20;;;;;;;2.40;2.20;;;;;;;13.93;100.00;99745.29;109624;1250;60074;-66
2023/09/04 02:35:46;;;;;;;3.10;2.80;;;;;;;13.81;100.00;99738.37;109637;1250;59892;-66
2023/09/04 02:38:14;;;;;;;2.80;2.60;;;;;;;13.76;100.00;99740.08;109575;1251;73533;-66
2023/09/04 02:40:40;;;;;;;5.60;2.90;;;;;;;13.78;100.00;99738.78;109592;1250;61855;-66
2023/09/04 02:43:07;;;;;;;4.60;2.60;;;;;;;13.83;100.00;99740.83;109544;1251;60090;-66
2023/09/04 02:45:33;;;;;;;3.00;2.70;;;;;;;13.87;100.00;99751.05;109576;1250;75464;-66
2023/09/04 02:48:00;;;;;;;3.40;3.10;;;;;;;13.81;100.00;99750.54;109591;1250;66561;-67
2023/09/04 02:50:26;;;;;;;3.50;3.20;;;;;;;13.75;100.00;99748.94;109588;1250;60097;-66
2023/09/04 02:52:54;;;;;;;5.70;4.10;;;;;;;13.72;100.00;99754.05;109571;1250;61986;-67
2023/09/04 02:55:21;;;;;;;4.00;3.20;;;;;;;13.69;100.00;99752.81;109598;1251;59730;-68
2023/09/04 02:57:47;;;;;;;3.50;3.00;;;;;;;13.70;100.00;99757.44;109530;1250;74092;-66
2023/09/04 03:00:14;;;;;;;3.00;2.70;;;;;;;13.73;100.00;99755.82;109554;1250;68207;-66
2023/09/04 03:02:41;;;;;;;3.30;2.80;;;;;;;13.75;100.00;99754.86;109608;1250;71249;-68
2023/09/04 03:05:08;;;;;;;3.10;2.80;;;;;;;13.75;100.00;99755.94;109576;1250;60469;-66
2023/09/04 03:07:35;;;;;;;2.80;2.60;;;;;;;13.71;100.00;99755.60;109581;1250;60951;-67
2023/09/04 03:10:01;;;;;;;2.80;2.50;;;;;;;13.72;100.00;99760.73;109574;1250;75373;-67
2023/09/04 03:12:32;;;;;;;2.60;2.40;;;;;;;13.73;100.00;99761.83;109531;1250;67708;-66
2023/09/04 03:15:06;;;;;;;2.80;2.60;;;;;;;13.74;100.00;99762.42;109567;1250;71120;-66
2023/09/04 03:17:34;;;;;;;3.30;3.00;;;;;;;13.74;100.00;99760.41;109499;1251;60250;-69
2023/09/04 03:20:04;;;;;;;3.30;3.00;;;;;;;13.72;100.00;99759.23;109464;1251;59723;-66
2023/09/04 03:22:31;;;;;;;3.70;3.10;;;;;;;13.70;100.00;99759.73;109612;1251;75298;-66
2023/09/04 03:24:58;;;;;;;4.40;4.00;;;;;;;13.67;100.00;99763.46;109506;1250;66670;-67
2023/09/04 03:27:27;;;;;;;6.10;3.40;;;;;;;13.63;100.00;99763.56;109527;1251;72585;-66
2023/09/04 03:29:53;;;;;;;4.00;3.30;;;;;;;13.58;100.00;99769.13;109474;1251;63058;-66
2023/09/04 03:32:20;;;;;;;4.10;2.80;;;;;;;13.54;100.00;99771.02;109503;1251;59682;-66
2023/09/04 03:34:47;;;;;;;7.30;3.30;;;;;;;13.51;100.00;99774.88;109650;1250;74308;-68
2023/09/04 03:37:13;;;;;;;3.60;2.90;;;;;;;13.50;100.00;99778.96;109631;1250;59780;-71
2023/09/04 03:39:40;;;;;;;4.70;2.90;;;;;;;13.52;100.00;99776.04;109484;1250;72665;-72
2023/09/04 03:42:07;;;;;;;6.00;3.10;;;;;;;13.54;100.00;99776.86;109528;1250;63796;-71
2023/09/04 03:44:34;;;;;;;7.60;3.00;;;;;;;13.55;100.00;99768.40;109533;1250;59833;-71
2023/09/04 03:47:00;;;;;;;4.00;3.10;;;;;;;13.53;100.00;99765.25;109639;1250;75345;-73
2023/09/04 03:49:27;;;;;;;6.30;3.20;;;;;;;13.53;100.00;99767.22;109688;1250;66339;-74
2023/09/04 03:51:54;;;;;;;9.90;3.40;;;;;;;13.55;100.00;99770.91;109541;1250;71449;-69
2023/09/04 03:54:22;;;;;;;11.10;3.60;;;;;;;13.59;100.00;99776.98;109523;1250;61822;-75
2023/09/04 03:56:49;;;;;;;4.10;3.50;;;;;;;13.63;100.00;99780.84;109517;1250;59719;-69
2023/09/04 03:59:16;;;;;;;5.50;2.60;;;;;;;13.65;100.00;99782.02;109554;1250;75567;-70
2023/09/04 04:01:43;;;;;;;7.80;2.90;;;;;;;13.64;100.00;99784.43;109681;1250;59847;-70
2023/09/04 04:04:11;;;;;;;3.40;3.10;;;;;;;13.63;100.00;99782.95;109619;1250;71181;-72
2023/09/04 04:06:38;;;;;;;4.60;3.20;;;;;;;13.64;100.00;99788.52;109664;1250;61645;-72
2023/09/04 04:09:06;;;;;;;3.40;3.10;;;;;;;13.62;100.00;99790.73;109577;1250;59819;-72
2023/09/04 04:11:36;;;;;;;5.10;3.60;;;;;;;13.60;100.00;99788.49;109660;1250;75284;-71
2023/09/04 04:14:02;;;;;;;3.50;3.00;;;;;;;13.60;100.00;99788.50;109579;1250;66629;-73
2023/09/04 04:16:33;;;;;;;3.40;3.10;;;;;;;13.58;100.00;99788.46;109616;1250;72511;-73
2023/09/04 04:19:00;;;;;;;3.50;3.00;;;;;;;13.58;100.00;99789.83;109454;1251;61687;-67
2023/09/04 04:21:26;;;;;;;4.20;2.60;;;;;;;13.62;100.00;99791.27;109625;1250;59689;-75
2023/09/04 04:23:53;;;;;;;3.10;2.90;;;;;;;13.69;100.00;99792.45;109586;1250;74283;-71
2023/09/04 04:26:19;;;;;;;3.00;2.70;;;;;;;13.75;100.00;99789.73;109624;1250;66532;-73
2023/09/04 04:28:46;;;;;;;8.50;2.70;;;;;;;13.84;100.00;99789.39;109599;1251;72711;-68
2023/09/04 04:31:13;;;;;;;3.70;2.70;;;;;;;14.01;100.00;99792.80;109629;1250;61079;-70
2023/09/04 04:33:39;;;;;;;5.10;2.70;;;;;;;14.26;100.00;99796.45;109635;1250;60604;-70
2023/09/04 04:36:07;;;;;;;4.60;2.80;;;;;;;14.56;100.00;99800.48;109461;1250;75240;-71
2023/09/04 04:38:33;;;;;;;3.30;2.90;;;;;;;14.88;100.00;99800.10;109639;1250;66767;-74
2023/09/04 04:41:00;;;;;;;4.20;2.60;;;;;;;15.19;100.00;99801.35;109557;1250;71517;-70
2023/09/04 04:43:27;;;;;;;6.10;3.00;;;;;;;15.50;100.00;99801.38;109466;1251;60542;-72
2023/09/04 04:45:55;;;;;;;6.50;2.70;;;;;;;15.79;100.00;99805.70;109675;1250;60128;-73
2023/09/04 04:48:22;;;;;;;9.10;3.80;;;;;;;16.12;100.00;99807.28;109415;1250;75241;-70
2023/09/04 04:50:49;;;;;;;10.50;3.40;;;;;;;16.43;100.00;99806.92;109477;1250;66463;-74
2023/09/04 04:53:16;;;;;;;9.90;3.40;;;;;;;16.74;100.00;99802.70;109454;1250;72625;-72
2023/09/04 04:55:43;;;;;;;7.30;2.90;;;;;;;17.03;100.00;99803.25;109412;1251;61786;-70
2023/09/04 04:58:10;;;;;;;6.30;2.80;;;;;;;17.30;100.00;99797.12;109436;1250;61180;-74
2023/09/04 05:00:37;;;;;;;6.50;3.40;;;;;;;17.58;100.00;99796.36;109531;1251;75324;-72
2023/09/04 05:03:03;;;;;;;9.90;3.40;;;;;;;17.86;100.00;99791.99;109678;1250;67534;-74
2023/09/04 05:05:30;;;;;;;13.70;3.60;;;;;;;18.13;100.00;99790.24;109612;1250;72987;-74
2023/09/04 05:07:56;;;;;;;9.00;3.20;;;;;;;18.41;100.00;99793.67;109538;1250;60153;-71
2023/09/04 05:10:23;;;;;;;3.90;3.00;;;;;;;18.62;100.00;99790.88;109689;1250;59988;-71
2023/09/04 05:12:51;;;;;;;5.40;2.90;;;;;;;18.84;100.00;99786.13;109467;1250;74122;-69
2023/09/04 05:15:17;;;;;;;6.30;3.20;;;;;;;19.08;100.00;99784.52;109530;1250;66554;-73
2023/09/04 05:17:44;;;;;;;6.50;3.00;;;;;;;19.30;100.00;99782.79;109475;1250;213863;-73
2023/09/04 05:20:11;;;;;;;9.50;3.30;;;;;;;19.52;100.00;99787.62;109520;1250;60215;-72
2023/09/04 05:22:38;;;;;;;7.50;3.40;;;;;;;19.67;100.00;99789.23;109716;1250;59851;-74
2023/09/04 05:25:04;;;;;;;9.20;3.50;;;;;;;19.83;100.00;99788.33;109615;1250;75266;-73
2023/09/04 05:27:31;;;;;;;8.30;2.80;;;;;;;20.00;100.00;99787.99;109686;1250;67909;-74
2023/09/04 05:29:58;;;;;;;7.30;2.60;;;;;;;20.17;100.00;99792.21;109440;1250;72471;-75
2023/09/04 05:32:25;;;;;;;8.20;2.40;;;;;;;20.35;100.00;99793.58;109624;1250;59766;-73
2023/09/04 05:34:54;;;;;;;7.50;2.40;;;;;;;20.54;100.00;99794.72;109637;1250;59938;-73
2023/09/04 05:37:21;;;;;;;5.30;2.60;;;;;;;20.67;100.00;99799.09;109695;1249;75535;-73
2023/09/04 05:39:48;;;;;;;2.80;2.50;;;;;;;20.85;100.00;99798.67;109655;1250;66491;-70
2023/09/04 05:42:14;;;;;;;12.50;2.80;;;;;;;21.08;100.00;99797.41;109680;1250;72602;-71
2023/09/04 05:44:41;;;;;;;8.60;3.20;;;;;;;21.34;100.00;99797.28;109621;1251;60786;-71
2023/09/04 05:47:07;;;;;;;6.10;3.20;;;;;;;21.55;100.00;99796.57;109659;1250;59643;-71
2023/09/04 05:49:34;;;;;;;8.00;2.60;;;;;;;21.75;100.00;99797.54;109665;1250;74315;-73
2023/09/04 05:52:00;;;;;;;7.90;2.90;;;;;;;21.95;100.00;99800.15;109665;1250;59780;-73
2023/09/04 05:54:28;;;;;;;12.00;3.20;;;;;;;22.17;100.00;99797.66;109672;1250;72801;-70
2023/09/04 05:56:54;;;;;;;10.50;2.90;;;;;;;22.40;100.00;99801.20;109546;1250;60554;-73
2023/09/04 05:59:21;;;;;;;11.00;3.00;;;;;;;22.65;100.00;99800.16;109637;1251;60123;-73
2023/09/04 06:01:47;;;;;;;16.00;4.40;;;;;;;22.76;100.00;99806.09;109667;1250;74013;-70
2023/09/04 06:04:14;;;;;;;16.10;3.10;;;;;;;22.81;100.00;99808.48;109691;1250;66424;-74
2023/09/04 06:06:40;;;;;;;14.70;3.20;;;;;;;22.99;100.00;99814.25;109645;1250;71350;-73
2023/09/04 06:09:07;;;;;;;15.20;3.40;;;;;;;23.23;100.00;99811.55;109631;1250;60338;-72
2023/09/04 06:11:34;;;;;;;10.30;3.10;;;;;;;23.49;100.00;99814.15;109637;1250;60279;-72
2023/09/04 06:14:01;;;;;;;8.00;2.80;;;;;;;23.70;100.00;99818.15;109461;1251;74726;-71
2023/09/04 06:16:27;;;;;;;14.00;2.80;;;;;;;23.87;100.00;99817.20;109626;1250;68812;-70
2023/09/04 06:18:54;;;;;;;6.90;2.70;;;;;;;23.92;100.00;99819.84;109632;1250;70441;-75
2023/09/04 06:21:20;;;;;;;5.60;3.80;;;;;;;23.97;99.91;99823.77;109630;1250;59763;-76
2023/09/04 06:23:47;;;;;;;11.60;3.60;;;;;;;24.01;99.69;99827.30;109701;1251;59691;-73
2023/09/04 06:26:15;;;;;;;2.90;2.50;;;;;;;24.14;97.80;99827.37;109628;1250;74483;-73
2023/09/04 06:28:41;;;;;;;3.50;2.70;;;;;;;24.21;97.22;99825.80;109677;1250;60330;-73
2023/09/04 06:31:08;;;;;;;3.00;2.50;;;;;;;24.38;97.05;99826.45;109595;1250;71148;-72
2023/09/04 06:33:37;;;;;;;4.70;2.40;;;;;;;24.60;95.43;99828.87;109653;1249;59717;-73
2023/09/04 06:36:04;;;;;;;4.90;2.80;;;;;;;24.80;94.18;99834.19;109615;1250;59834;-73
2023/09/04 06:38:31;;;;;;;2.30;2.10;;;;;;;24.94;92.67;99832.58;109610;1250;74443;-72
2023/09/04 06:40:57;;;;;;;2.60;1.70;;;;;;;25.12;91.84;99834.30;109685;1250;60331;-72
2023/09/04 06:43:27;;;;;;;2.20;2.00;;;;;;;25.32;89.60;99836.52;109610;1250;72825;-73
2023/09/04 06:45:54;;;;;;;3.50;2.10;;;;;;;25.49;89.34;99831.85;109659;1250;60216;-70
2023/09/04 06:48:21;;;;;;;5.50;2.50;;;;;;;25.76;88.34;99833.67;109617;1250;60029;-74
2023/09/04 06:50:49;;;;;;;4.10;2.40;;;;;;;25.95;85.86;99836.75;109649;1250;74007;-74
2023/09/04 06:53:16;;;;;;;3.40;2.20;;;;;;;26.14;83.80;99833.20;109608;1250;66391;-73
2023/09/04 06:55:43;;;;;;;2.50;2.30;;;;;;;26.28;81.76;99834.39;109646;1250;72681;-75
2023/09/04 06:58:09;;;;;;;5.30;2.10;;;;;;;26.34;81.43;99831.52;109598;1250;60254;-73
2023/09/04 07:00:36;;;;;;;2.40;2.20;;;;;;;26.50;81.03;99826.27;109657;1250;60012;-74
2023/09/04 07:03:04;;;;;;;2.00;1.80;;;;;;;26.68;80.22;99826.19;109666;1250;75602;-72
2023/09/04 07:05:31;;;;;;;2.40;2.20;;;;;;;26.80;78.04;99826.86;109733;1250;68116;-71
2023/09/04 07:07:58;;;;;;;2.60;2.40;;;;;;;26.95;76.96;99829.97;109674;1250;72478;-70
2023/09/04 07:10:24;;;;;;;2.90;2.40;;;;;;;27.19;76.17;99833.23;109656;1250;59799;-70
2023/09/04 07:12:51;;;;;;;2.20;2.10;;;;;;;27.50;74.20;99838.02;109624;1251;61050;-72
2023/09/04 07:15:19;;;;;;;2.30;2.10;;;;;;;27.80;71.75;99837.54;109592;1253;75504;-74
2023/09/04 07:17:45;;;;;;;2.80;2.00;;;;;;;27.93;70.52;99839.27;109699;1250;66449;-75
2023/09/04 07:20:12;;;;;;;9.60;2.70;;;;;;;27.99;68.70;99843.27;109698;1250;72796;-75
2023/09/04 07:22:39;;;;;;;2.40;2.00;;;;;;;28.10;68.24;99847.82;109686;1250;60878;-72
2023/09/04 07:25:06;;;;;;;5.40;2.20;;;;;;;28.10;68.05;99845.27;109714;1250;59807;-71
2023/09/04 07:27:33;;;;;;;4.30;2.40;;;;;;;28.34;68.74;99845.20;109589;1250;75365;-76
2023/09/04 07:29:59;;;;;;;4.70;2.20;;;;;;;28.73;65.75;99849.20;109600;1250;67972;-74
2023/09/04 07:32:26;;;;;;;4.60;3.00;;;;;;;28.93;63.18;99850.71;109609;1250;72670;-74
2023/09/04 07:34:56;;;;;;;7.60;2.80;;;;;;;28.97;62.22;99852.33;109632;1250;60135;-73
2023/09/04 07:37:27;;;;;;;3.70;2.50;;;;;;;28.99;61.75;99855.11;109706;1250;59734;-73
2023/09/04 07:39:53;;;;;;;3.60;2.60;;;;;;;28.83;61.20;99853.27;109638;1250;75799;-75
2023/09/04 07:42:21;;;;;;;4.20;2.70;;;;;;;28.56;62.28;99861.45;109658;1250;59808;-72
2023/09/04 07:44:47;;;;;;;6.30;3.10;;;;;;;28.27;62.69;99862.50;109710;1250;73185;-72
2023/09/04 07:47:14;;;;;;;6.60;3.20;;;;;;;28.06;63.93;99869.81;109622;1251;60217;-73
2023/09/04 07:49:41;;;;;;;3.70;2.30;;;;;;;27.94;63.53;99871.49;109496;1250;61475;-74
2023/09/04 07:52:07;;;;;;;3.50;2.70;;;;;;;27.76;65.00;99871.70;109659;1250;75342;-71
2023/09/04 07:54:34;;;;;;;4.50;2.50;;;;;;;27.69;65.70;99873.61;109682;1250;67721;-74
2023/09/04 07:57:02;;;;;;;6.90;2.80;;;;;;;27.73;66.51;99874.50;109607;1251;72493;-73
2023/09/04 07:59:30;;;;;;;2.60;2.40;;;;;;;27.89;65.50;99873.19;109659;1250;60441;-73
2023/09/04 08:01:56;;;;;;;3.10;2.40;;;;;;;27.77;64.45;99874.55;109664;1250;59828;-74
2023/09/04 08:04:23;;;;;;;4.20;2.60;;;;;;;27.49;64.25;99872.60;109693;1250;60159;-76
2023/09/04 08:06:49;;;;;;;6.30;2.70;;;;;;;27.29;65.01;99875.92;109682;1250;67767;-72
2023/09/04 08:09:16;;;;;;;4.70;2.70;;;;;;;27.15;66.12;99880.91;109598;1250;71838;-71
2023/09/04 08:11:42;;;;;;;3.50;3.20;;;;;;;27.07;67.23;99879.35;109683;1250;60107;-71
2023/09/04 08:14:09;;;;;;;4.60;3.30;;;;;;;27.15;67.85;99877.15;109663;1250;60134;-72
2023/09/04 08:16:36;;;;;;;4.00;2.80;;;;;;;27.44;68.29;99882.75;109674;1250;75538;-75
2023/09/04 08:19:02;;;;;;;4.10;3.30;;;;;;;27.96;68.69;99878.33;109691;1249;67568;-74
2023/09/04 08:21:33;;;;;;;5.10;3.40;;;;;;;28.56;65.53;99873.39;109624;1251;73131;-75
2023/09/04 08:23:59;;;;;;;4.50;3.20;;;;;;;28.84;62.48;99876.77;109681;1250;59749;-74
2023/09/04 08:26:26;;;;;;;10.20;3.80;;;;;;;29.28;61.21;99878.91;109694;1251;59654;-73
2023/09/04 08:28:52;;;;;;;3.40;3.10;;;;;;;29.81;59.90;99880.48;109710;1250;75384;-74
2023/09/04 08:31:19;;;;;;;5.40;3.40;;;;;;;29.91;57.21;99882.39;109694;1250;66387;-74
2023/09/04 08:33:46;;;;;;;3.80;2.50;;;;;;;29.62;56.07;99879.97;109446;1251;71437;-69
2023/09/04 08:36:13;;;;;;;7.30;3.30;;;;;;;29.23;55.37;99880.80;109649;1251;59699;-71
2023/09/04 08:38:39;;;;;;;4.30;3.50;;;;;;;28.90;56.47;99879.90;109668;1250;60078;-72
2023/09/04 08:41:09;;;;;;;4.80;3.60;;;;;;;28.81;56.94;99879.56;109716;1250;74356;-70
2023/09/04 08:43:36;;;;;;;4.10;3.70;;;;;;;28.82;57.34;99882.36;109687;1250;67746;-72
2023/09/04 08:46:05;;;;;;;4.20;3.10;;;;;;;28.83;58.31;99887.98;109620;1250;72545;-70
2023/09/04 08:48:39;;;;;;;4.00;3.70;;;;;;;28.77;57.58;99884.17;109605;1250;59734;-68
2023/09/04 08:51:06;;;;;;;3.40;3.10;;;;;;;28.47;56.64;99884.63;109678;1250;59815;-71
2023/09/04 08:53:34;;;;;;;5.10;3.40;;;;;;;28.14;57.64;99892.45;109701;1250;75290;-74
2023/09/04 08:56:02;;;;;;;4.50;3.10;;;;;;;28.14;59.52;99887.25;109454;1250;67887;-73
2023/09/04 08:58:29;;;;;;;9.60;3.30;;;;;;;28.54;60.31;99887.73;109708;1250;72522;-72
2023/09/04 09:00:56;;;;;;;5.70;3.30;;;;;;;28.90;59.99;99889.27;109671;1250;60878;-72
2023/09/04 09:03:22;;;;;;;3.20;2.80;;;;;;;29.09;59.72;99886.77;109620;1250;60209;-75
2023/09/04 09:05:50;;;;;;;3.20;2.80;;;;;;;29.19;58.30;99887.39;109704;1250;75977;-72
2023/09/04 09:08:16;;;;;;;5.30;2.70;;;;;;;29.04;56.10;99890.58;109537;1251;59817;-72
2023/09/04 09:10:46;;;;;;;3.90;2.90;;;;;;;28.64;55.39;99890.22;109616;1250;72674;-71
2023/09/04 09:13:13;;;;;;;3.80;2.40;;;;;;;28.27;55.83;99896.65;109649;1250;59815;-72
2023/09/04 09:15:41;;;;;;;4.40;2.40;;;;;;;27.96;56.34;99897.08;109711;1250;59637;-73
2023/09/04 09:18:08;;;;;;;3.30;2.40;;;;;;;27.66;56.41;99900.51;109527;1251;75458;-71
2023/09/04 09:20:39;;;;;;;3.50;2.20;;;;;;;27.44;58.82;99899.33;109683;1250;66727;-71
2023/09/04 09:23:05;;;;;;;3.50;2.50;;;;;;;27.44;60.52;99900.20;109608;1250;71089;-73
2023/09/04 09:25:33;;;;;;;3.90;2.60;;;;;;;27.50;60.42;99895.23;109666;1250;60260;-72
2023/09/04 09:28:06;;;;;;;8.50;2.80;;;;;;;27.33;60.56;99900.25;109555;1250;60463;-69
2023/09/04 09:30:39;;;;;;;7.60;2.10;;;;;;;27.32;62.88;99903.91;109578;1250;75429;-69
2023/09/04 09:33:12;;;;;;;4.00;2.80;;;;;;;27.52;60.85;99904.42;109691;1250;68041;-72
2023/09/04 09:35:42;;;;;;;5.30;2.80;;;;;;;27.61;60.89;99906.61;109689;1250;71566;-71
2023/09/04 09:38:09;;;;;;;3.40;2.90;;;;;;;27.63;59.64;99902.25;109657;1250;59667;-69
2023/09/04 09:40:36;;;;;;;8.90;3.00;;;;;;;27.63;60.28;99903.40;109670;1250;61447;-73
2023/09/04 09:43:03;;;;;;;5.00;3.00;;;;;;;27.65;61.16;99895.26;109651;1250;73098;-71
2023/09/04 09:45:33;;;;;;;3.30;2.60;;;;;;;27.75;61.14;99894.83;109726;1250;67756;-72
2023/09/04 09:48:11;;;;;;;2.80;2.40;;;;;;;27.92;58.31;99889.10;109680;1250;72672;-71
2023/09/04 09:50:40;;;;;;;2.70;2.40;;;;;;;28.06;58.60;99888.14;109671;1250;59754;-70
2023/09/04 09:53:07;;;;;;;4.30;2.40;;;;;;;28.21;58.84;99891.84;109597;1250;59748;-72
2023/09/04 09:55:34;;;;;;;4.60;2.60;;;;;;;28.31;58.95;99886.19;109715;1250;75608;-70
2023/09/04 09:58:01;;;;;;;2.60;2.40;;;;;;;28.40;58.86;99887.55;109616;1250;66930;-75
2023/09/04 10:00:28;;;;;;;3.00;2.60;;;;;;;28.55;56.73;99890.25;109670;1250;71458;-71
2023/09/04 10:02:55;;;;;;;4.40;3.00;;;;;;;28.63;56.22;99886.96;109656;1250;60222;-73
2023/09/04 10:05:23;;;;;;;3.10;2.50;;;;;;;28.70;56.15;99889.68;109618;1250;60142;-72
2023/09/04 10:07:53;;;;;;;2.70;2.50;;;;;;;28.79;53.69;99891.13;109726;1250;76325;-72
2023/09/04 10:10:20;;;;;;;3.70;2.50;;;;;;;28.75;53.57;99891.64;109702;1250;67774;-71
2023/09/04 10:12:52;;;;;;;2.30;2.10;;;;;;;28.70;53.66;99897.94;109630;1250;72734;-72
2023/09/04 10:15:25;;;;;;;2.80;2.40;;;;;;;28.46;53.06;99893.83;109616;1250;60068;-72
2023/09/04 10:18:02;;;;;;;2.60;2.40;;;;;;;27.94;53.53;99893.85;109526;1251;60225;-70
2023/09/04 10:20:29;;;;;;;2.70;2.50;;;;;;;27.35;55.56;99897.42;109642;1250;75445;-71
2023/09/04 10:23:03;;;;;;;4.10;2.60;;;;;;;26.76;57.33;99903.77;109722;1250;67123;-72
2023/09/04 10:25:36;;;;;;;3.40;2.70;;;;;;;26.30;59.25;99905.58;109544;1250;72789;-71
2023/09/04 10:28:07;;;;;;;2.20;2.00;;;;;;;25.87;61.27;99908.76;109641;1250;60215;-72
2023/09/04 10:30:36;;;;;;;2.70;2.20;;;;;;;25.40;64.31;99908.71;109715;1250;59701;-71
2023/09/04 10:33:03;;;;;;;3.10;2.30;;;;;;;25.18;66.82;99900.61;109665;1250;75322;-72
2023/09/04 10:35:29;;;;;;;4.40;2.70;;;;;;;25.22;69.17;99895.42;109608;1250;67795;-70
2023/09/04 10:37:56;;;;;;;4.60;2.60;;;;;;;25.46;70.31;99897.63;109467;1250;72860;-68
2023/09/04 10:40:23;;;;;;;5.10;2.80;;;;;;;25.69;69.33;99897.04;109450;1250;61719;-73
2023/09/04 10:42:49;;;;;;;6.40;2.40;;;;;;;25.95;69.88;99895.52;109540;1250;60199;-73
2023/09/04 10:45:18;;;;;;;2.30;2.10;;;;;;;26.23;65.89;99897.83;109695;1250;75413;-70
2023/09/04 10:47:51;;;;;;;2.50;2.30;;;;;;;26.35;65.28;99901.02;109673;1250;66483;-68
2023/09/04 10:50:34;;;;;;;6.30;2.50;;;;;;;26.24;64.87;99898.87;109565;1250;72536;-67
2023/09/04 10:53:01;;;;;;;3.60;3.20;;;;;;;26.02;65.70;99903.70;109660;1250;60197;-68
2023/09/04 10:55:29;;;;;;;3.40;2.70;;;;;;;25.86;66.11;99907.55;109729;1250;60703;-68
2023/09/04 10:58:02;;;;;;;3.10;2.80;;;;;;;25.66;65.98;99907.64;109686;1250;75321;-68
2023/09/04 11:00:32;;;;;;;3.30;2.80;;;;;;;25.45;66.23;99906.87;109655;1250;66739;-69
2023/09/04 11:03:13;;;;;;;4.50;2.50;;;;;;;25.30;66.64;99905.48;109644;1250;72319;-68
2023/09/04 11:06:01;;;;;;;2.70;2.40;;;;;;;25.20;67.17;99907.44;109625;1250;61986;-68
2023/09/04 11:08:29;;;;;;;2.60;2.30;;;;;;;25.08;67.11;99909.97;109599;1250;60158;-68
2023/09/04 11:10:59;;;;;;;5.00;2.40;;;;;;;24.90;67.36;99905.60;109640;1250;76114;-67
2023/09/04 11:13:26;;;;;;;6.10;2.60;;;;;;;24.72;67.52;99903.65;109666;1250;67918;-68
2023/09/04 11:15:56;;;;;;;3.80;2.00;;;;;;;24.59;67.71;99908.44;109561;1251;72811;-67
2023/09/04 11:18:29;;;;;;;6.60;2.00;;;;;;;24.50;68.08;99911.09;109686;1250;60396;-68
2023/09/04 11:20:56;;;;;;;1.90;1.70;;;;;;;24.46;68.67;99911.20;109703;1250;60626;-67
2023/09/04 11:23:23;;;;;;;3.40;1.90;;;;;;;24.45;65.55;99908.41;109577;1250;75377;-68